createdAt,value
2018-02-19T00:01:30.151Z,0.80
2018-02-19T00:03:57.635Z,0.70
2018-02-19T00:06:25.542Z,0.70
2018-02-19T00:08:53.033Z,0.70
2018-02-19T00:11:20.540Z,0.70
2018-02-19T00:13:48.813Z,0.70
2018-02-19T00:16:16.426Z,0.70
2018-02-19T00:18:44.318Z,0.60
2018-02-19T00:21:11.812Z,0.70
2018-02-19T00:23:39.305Z,0.60
2018-02-19T00:26:06.814Z,0.50
2018-02-19T00:28:34.299Z,0.60
2018-02-19T00:31:01.805Z,0.50
2018-02-19T00:33:29.298Z,0.50
2018-02-19T00:35:56.810Z,0.50
2018-02-19T00:38:24.309Z,0.50
2018-02-19T00:40:51.812Z,0.50
2018-02-19T00:43:19.313Z,0.50
2018-02-19T00:45:47.219Z,0.40
2018-02-19T00:48:14.713Z,0.40
2018-02-19T00:50:42.216Z,0.30
2018-02-19T00:53:09.695Z,0.30
2018-02-19T00:55:37.593Z,0.40
2018-02-19T00:58:05.078Z,0.40
2018-02-19T01:00:32.581Z,0.30
2018-02-19T01:03:00.063Z,0.30
2018-02-19T01:05:27.559Z,0.20
2018-02-19T01:07:55.440Z,0.20
2018-02-19T01:10:23.344Z,0.20
2018-02-19T01:12:50.841Z,0.20
2018-02-19T01:15:18.348Z,0.20
2018-02-19T01:17:45.854Z,0.20
2018-02-19T01:20:13.364Z,0.20
2018-02-19T01:22:40.849Z,0.20
2018-02-19T01:25:08.356Z,0.20
2018-02-19T01:27:35.865Z,0.10
2018-02-19T01:30:03.363Z,0.20
2018-02-19T01:32:30.867Z,0.10
2018-02-19T01:34:58.754Z,0.10
2018-02-19T01:37:26.265Z,0.10
2018-02-19T01:39:53.748Z,0.10
2018-02-19T01:42:21.247Z,0.10
2018-02-19T01:44:49.132Z,0.00
2018-02-19T01:47:17.124Z,0.00
2018-02-19T01:52:50.282Z,0.00
2018-02-19T01:55:17.772Z,0.10
2018-02-19T01:57:45.283Z,0.00
2018-02-19T02:00:13.156Z,0.00
2018-02-19T02:02:40.665Z,0.00
2018-02-19T02:05:08.147Z,0.00
2018-02-19T02:07:35.696Z,-0.10
2018-02-19T02:10:03.170Z,-0.10
2018-02-19T02:12:30.685Z,-0.10
2018-02-19T02:14:58.182Z,-0.10
2018-02-19T02:17:25.691Z,-0.10
2018-02-19T02:19:53.237Z,-0.10
2018-02-19T02:22:21.154Z,-0.10
2018-02-19T02:24:48.645Z,0.00
2018-02-19T02:27:16.149Z,0.00
2018-02-19T02:29:43.729Z,-0.10
2018-02-19T02:32:11.642Z,-0.10
2018-02-19T02:34:39.176Z,-0.10
2018-02-19T02:37:07.085Z,-0.20
2018-02-19T02:39:34.588Z,-0.10
2018-02-19T02:42:02.092Z,-0.30
2018-02-19T02:44:29.576Z,-0.20
2018-02-19T02:46:57.482Z,-0.10
2018-02-19T02:49:24.975Z,-0.10
2018-02-19T02:51:52.483Z,-0.10
2018-02-19T02:54:19.976Z,-0.20
2018-02-19T02:56:47.495Z,-0.20
2018-02-19T02:59:14.993Z,-0.20
2018-02-19T03:01:42.496Z,-0.30
2018-02-19T03:04:09.980Z,-0.30
2018-02-19T03:06:37.489Z,-0.30
2018-02-19T03:09:05.027Z,-0.30
2018-02-19T03:11:32.554Z,-0.30
2018-02-19T03:14:00.048Z,-0.20
2018-02-19T03:16:27.533Z,-0.20
2018-02-19T03:18:55.031Z,-0.20
2018-02-19T03:21:22.520Z,-0.20
2018-02-19T03:23:50.024Z,-0.20
2018-02-19T03:26:17.520Z,-0.20
2018-02-19T03:28:45.029Z,-0.30
2018-02-19T03:31:12.534Z,-0.30
2018-02-19T03:33:40.437Z,-0.40
2018-02-19T03:36:07.949Z,-0.30
2018-02-19T03:38:35.455Z,-0.30
2018-02-19T03:41:03.346Z,-0.40
2018-02-19T03:43:30.869Z,-0.40
2018-02-19T03:45:58.361Z,-0.40
2018-02-19T03:48:25.873Z,-0.40
2018-02-19T03:50:53.369Z,-0.40
2018-02-19T03:53:20.877Z,-0.40
2018-02-19T03:55:48.457Z,-0.40
2018-02-19T03:58:16.365Z,-0.40
2018-02-19T04:00:43.857Z,-0.40
2018-02-19T04:03:11.365Z,-0.40
2018-02-19T04:05:38.868Z,-0.40
2018-02-19T04:08:06.381Z,-0.40
2018-02-19T04:10:33.867Z,-0.40
2018-02-19T04:13:01.378Z,-0.50
2018-02-19T04:15:28.877Z,-0.40
2018-02-19T04:17:56.389Z,-0.40
2018-02-19T04:20:23.901Z,-0.40
2018-02-19T04:22:51.403Z,-0.40
2018-02-19T04:25:18.888Z,-0.40
2018-02-19T04:27:46.397Z,-0.40
2018-02-19T04:30:13.885Z,-0.50
2018-02-19T04:32:41.393Z,-0.40
2018-02-19T04:35:08.889Z,-0.40
2018-02-19T04:37:36.798Z,-0.40
2018-02-19T04:40:04.284Z,-0.40
2018-02-19T04:42:31.777Z,-0.40
2018-02-19T04:45:00.784Z,-0.30
2018-02-19T04:47:28.281Z,-0.30
2018-02-19T04:49:55.787Z,-0.40
2018-02-19T04:52:23.272Z,-0.40
2018-02-19T04:54:50.788Z,-0.30
2018-02-19T04:57:18.281Z,-0.30
2018-02-19T04:59:46.175Z,-0.40
2018-02-19T05:02:13.675Z,-0.40
2018-02-19T05:04:41.180Z,-0.40
2018-02-19T05:07:08.677Z,-0.40
2018-02-19T05:09:36.241Z,-0.40
2018-02-19T05:12:04.133Z,-0.40
2018-02-19T05:14:31.737Z,-0.40
2018-02-19T05:16:59.227Z,-0.40
2018-02-19T05:19:26.733Z,-0.40
2018-02-19T05:21:54.625Z,-0.40
2018-02-19T05:24:22.597Z,-0.40
2018-02-19T05:26:50.485Z,-0.40
2018-02-19T05:29:18.393Z,-0.30
2018-02-19T05:31:45.888Z,-0.30
2018-02-19T05:34:13.409Z,-0.30
2018-02-19T05:36:40.895Z,-0.30
2018-02-19T05:39:08.406Z,-0.40
2018-02-19T05:41:35.891Z,-0.40
2018-02-19T05:44:03.409Z,-0.30
2018-02-19T05:46:30.906Z,-0.40
2018-02-19T05:48:58.420Z,-0.40
2018-02-19T05:51:25.912Z,-0.40
2018-02-19T05:53:53.429Z,-0.40
2018-02-19T05:56:20.920Z,-0.30
2018-02-19T05:58:48.427Z,-0.30
2018-02-19T06:01:15.922Z,-0.30
2018-02-19T06:03:43.427Z,-0.30
2018-02-19T06:06:10.920Z,-0.30
2018-02-19T06:08:38.823Z,-0.30
2018-02-19T06:11:06.313Z,-0.30
2018-02-19T06:13:33.810Z,-0.30
2018-02-19T06:16:01.327Z,-0.30
2018-02-19T06:18:28.820Z,-0.30
2018-02-19T06:20:56.323Z,-0.20
2018-02-19T06:23:23.821Z,-0.20
2018-02-19T06:25:51.806Z,-0.20
2018-02-19T06:28:19.300Z,-0.20
2018-02-19T06:30:46.808Z,-0.20
2018-02-19T06:33:14.300Z,-0.20
2018-02-19T06:35:41.881Z,-0.20
2018-02-19T06:38:09.769Z,-0.10
2018-02-19T06:40:37.739Z,-0.20
2018-02-19T06:43:05.233Z,-0.10
2018-02-19T06:45:32.745Z,-0.10
2018-02-19T06:48:00.231Z,0.00
2018-02-19T06:50:27.741Z,-0.10
2018-02-19T06:52:55.634Z,-0.10
2018-02-19T06:55:23.144Z,-0.10
2018-02-19T06:57:50.657Z,-0.10
2018-02-19T07:00:18.552Z,0.00
2018-02-19T07:02:46.041Z,0.00
2018-02-19T07:05:13.550Z,0.00
2018-02-19T07:07:41.035Z,0.00
2018-02-19T07:10:08.545Z,0.00
2018-02-19T07:12:36.042Z,0.00
2018-02-19T07:15:03.545Z,0.10
2018-02-19T07:17:31.033Z,0.10
2018-02-19T07:19:58.925Z,0.10
2018-02-19T07:22:26.415Z,0.10
2018-02-19T07:24:53.924Z,0.10
2018-02-19T07:27:21.413Z,0.10
2018-02-19T07:29:49.312Z,0.30
2018-02-19T07:32:17.196Z,0.20
2018-02-19T07:34:44.700Z,0.20
2018-02-19T07:37:12.176Z,0.20
2018-02-19T07:39:39.665Z,0.20
2018-02-19T07:42:07.173Z,0.30
2018-02-19T07:44:34.657Z,1.90
2018-02-19T07:47:02.165Z,1.70
2018-02-19T07:49:29.660Z,1.40
2018-02-19T07:51:57.168Z,1.10
2018-02-19T07:54:24.666Z,0.90
2018-02-19T07:56:52.169Z,0.80
2018-02-19T07:59:19.662Z,0.70
2018-02-19T08:01:47.569Z,0.60
2018-02-19T08:04:15.061Z,0.60
2018-02-19T08:06:42.569Z,0.60
2018-02-19T08:09:10.456Z,0.60
2018-02-19T08:11:38.356Z,0.60
2018-02-19T08:14:05.842Z,0.60
2018-02-19T08:16:33.346Z,0.70
2018-02-19T08:19:00.828Z,0.80
2018-02-19T08:21:28.418Z,0.80
2018-02-19T08:23:56.359Z,0.70
2018-02-19T08:26:23.812Z,0.80
2018-02-19T08:28:51.341Z,0.80
2018-02-19T08:31:19.245Z,0.90
2018-02-19T08:33:46.737Z,0.90
2018-02-19T08:36:14.253Z,0.90
2018-02-19T08:38:41.737Z,0.90
2018-02-19T08:41:09.645Z,1.00
2018-02-19T08:43:37.141Z,1.00
2018-02-19T08:46:04.649Z,1.10
2018-02-19T08:48:32.541Z,1.20
2018-02-19T08:51:00.447Z,1.10
2018-02-19T08:53:27.981Z,1.10
2018-02-19T08:55:55.960Z,1.10
2018-02-19T08:58:23.439Z,1.10
2018-02-19T09:00:51.345Z,1.20
2018-02-19T09:03:18.828Z,1.20
2018-02-19T09:05:46.353Z,1.40
2018-02-19T09:08:13.841Z,1.60
2018-02-19T09:10:41.726Z,1.60
2018-02-19T09:13:09.248Z,1.70
2018-02-19T09:15:37.175Z,1.90
2018-02-19T09:18:04.678Z,1.90
2018-02-19T09:20:32.161Z,1.70
2018-02-19T09:22:59.670Z,1.70
2018-02-19T09:25:27.554Z,1.80
2018-02-19T09:27:55.462Z,1.90
2018-02-19T09:30:22.947Z,1.90
2018-02-19T09:32:50.443Z,2.00
2018-02-19T09:35:17.933Z,2.00
2018-02-19T09:37:45.831Z,2.10
2018-02-19T09:40:13.718Z,2.10
2018-02-19T09:42:41.221Z,2.20
2018-02-19T09:45:08.714Z,2.10
2018-02-19T09:47:36.218Z,2.00
2018-02-19T09:50:04.101Z,2.00
2018-02-19T09:52:32.005Z,2.00
2018-02-19T09:54:59.550Z,2.00
2018-02-19T09:57:27.073Z,2.00
2018-02-19T09:59:54.557Z,2.00
2018-02-19T10:02:22.058Z,2.00
2018-02-19T10:04:49.943Z,2.20
2018-02-19T10:07:17.840Z,2.20
2018-02-19T10:09:45.335Z,2.10
2018-02-19T10:12:12.843Z,2.00
2018-02-19T10:14:40.333Z,2.00
2018-02-19T10:17:08.237Z,2.20
2018-02-19T10:19:35.729Z,2.20
2018-02-19T10:22:03.241Z,2.10
2018-02-19T10:24:31.129Z,2.40
2018-02-19T10:26:59.114Z,2.60
2018-02-19T10:29:26.613Z,2.60
2018-02-19T10:31:54.125Z,2.60
2018-02-19T10:34:21.608Z,2.50
2018-02-19T10:36:49.093Z,2.40
2018-02-19T10:39:16.993Z,2.40
2018-02-19T10:41:44.564Z,2.50
2018-02-19T10:44:12.118Z,2.40
2018-02-19T10:46:40.005Z,2.90
2018-02-19T10:49:07.973Z,2.90
2018-02-19T10:51:35.861Z,2.80
2018-02-19T10:54:03.777Z,2.80
2018-02-19T10:56:31.267Z,2.80
2018-02-19T10:58:58.769Z,3.00
2018-02-19T11:01:26.268Z,3.00
2018-02-19T11:03:53.777Z,3.10
2018-02-19T11:06:21.270Z,3.10
2018-02-19T11:08:48.772Z,3.30
2018-02-19T11:11:16.652Z,3.40
2018-02-19T11:13:44.173Z,3.40
2018-02-19T11:16:11.664Z,3.30
2018-02-19T11:18:39.173Z,3.20
2018-02-19T11:21:06.661Z,3.30
2018-02-19T11:23:34.506Z,3.40
2018-02-19T11:26:02.394Z,3.30
2018-02-19T11:28:29.950Z,3.30
2018-02-19T11:30:57.833Z,3.20
2018-02-19T11:33:25.834Z,3.20
2018-02-19T11:35:53.412Z,3.20
2018-02-19T11:38:20.908Z,3.30
2018-02-19T11:40:48.391Z,3.40
2018-02-19T11:43:15.901Z,3.40
2018-02-19T11:45:43.775Z,3.50
2018-02-19T11:48:11.684Z,3.70
2018-02-19T11:50:39.325Z,3.60
2018-02-19T11:53:06.834Z,3.80
2018-02-19T11:55:34.611Z,4.00
2018-02-19T11:58:02.125Z,4.00
2018-02-19T12:00:29.736Z,4.10
2018-02-19T12:02:57.627Z,4.10
2018-02-19T12:05:25.225Z,4.10
2018-02-19T12:07:52.708Z,3.90
2018-02-19T12:10:20.257Z,4.00
2018-02-19T12:12:47.753Z,4.10
2018-02-19T12:15:15.272Z,4.10
2018-02-19T12:17:42.785Z,4.10
2018-02-19T12:20:10.305Z,4.20
2018-02-19T12:22:38.310Z,4.50
2018-02-19T12:25:05.844Z,4.50
2018-02-19T12:27:33.453Z,4.60
2018-02-19T12:30:01.008Z,4.60
2018-02-19T12:32:29.010Z,5.10
2018-02-19T12:34:56.551Z,5.10
2018-02-19T12:37:24.047Z,5.20
2018-02-19T12:39:51.557Z,5.10
2018-02-19T12:42:19.094Z,5.00
2018-02-19T12:44:46.626Z,4.90
2018-02-19T12:47:14.135Z,4.70
2018-02-19T12:49:41.672Z,4.80
2018-02-19T12:52:09.165Z,4.90
2018-02-19T12:54:37.109Z,4.90
2018-02-19T12:57:04.568Z,4.90
2018-02-19T12:59:32.079Z,4.70
2018-02-19T13:01:59.961Z,4.60
2018-02-19T13:04:27.882Z,4.50
2018-02-19T13:06:55.384Z,4.50
2018-02-19T13:09:22.904Z,4.50
2018-02-19T13:11:50.393Z,4.50
2018-02-19T13:14:17.928Z,5.50
2018-02-19T13:16:45.819Z,5.90
2018-02-19T13:19:13.324Z,5.90
2018-02-19T13:21:41.243Z,5.80
2018-02-19T13:24:08.749Z,5.70
2018-02-19T13:26:36.246Z,5.60
2018-02-19T13:29:03.799Z,5.50
2018-02-19T13:31:31.299Z,5.40
2018-02-19T13:33:58.805Z,5.20
2018-02-19T13:36:26.740Z,5.10
2018-02-19T13:38:54.238Z,5.10
2018-02-19T13:41:21.757Z,5.20
2018-02-19T13:43:49.245Z,5.20
2018-02-19T13:46:16.756Z,5.20
2018-02-19T13:48:44.242Z,5.20
2018-02-19T13:51:12.136Z,5.00
2018-02-19T13:53:39.629Z,5.00
2018-02-19T13:56:07.133Z,5.00
2018-02-19T13:58:34.621Z,5.10
2018-02-19T14:01:02.134Z,5.20
2018-02-19T14:03:29.628Z,6.00
2018-02-19T14:05:57.138Z,6.10
2018-02-19T14:08:25.029Z,5.90
2018-02-19T14:10:52.937Z,5.70
2018-02-19T14:13:20.429Z,5.70
2018-02-19T14:17:33.152Z,5.60
2018-02-19T14:20:00.657Z,5.60
2018-02-19T14:22:28.165Z,5.50
2018-02-19T14:24:56.171Z,5.40
2018-02-19T14:27:23.661Z,5.40
2018-02-19T14:29:51.324Z,5.50
2018-02-19T14:32:18.812Z,5.50
2018-02-19T14:34:46.355Z,5.50
2018-02-19T14:37:13.924Z,5.50
2018-02-19T14:39:41.440Z,5.50
2018-02-19T14:42:09.374Z,5.40
2018-02-19T14:44:36.949Z,5.40
2018-02-19T14:47:04.462Z,5.40
2018-02-19T14:49:31.991Z,5.30
2018-02-19T14:51:59.524Z,5.30
2018-02-19T14:54:27.073Z,5.10
2018-02-19T14:56:54.580Z,5.00
2018-02-19T14:59:22.468Z,5.00
2018-02-19T15:01:50.374Z,5.00
2018-02-19T15:04:18.048Z,5.00
2018-02-19T15:06:45.583Z,5.10
2018-02-19T15:09:13.079Z,5.10
2018-02-19T15:11:41.004Z,5.20
2018-02-19T15:17:11.990Z,5.00
2018-02-19T15:19:39.892Z,5.00
2018-02-19T15:22:07.418Z,5.00
2018-02-19T15:24:34.914Z,5.00
2018-02-19T15:27:02.439Z,5.00
2018-02-19T15:34:22.550Z,4.70
2018-02-19T15:36:50.542Z,4.70
2018-02-19T15:39:18.430Z,4.80
2018-02-19T15:41:45.946Z,4.70
2018-02-19T15:44:13.838Z,4.80
2018-02-19T15:46:41.429Z,4.80
2018-02-19T15:49:09.423Z,4.80
2018-02-19T15:51:37.016Z,4.80
2018-02-19T15:57:08.717Z,5.00
2018-02-19T15:59:36.214Z,4.90
2018-02-19T16:02:03.729Z,4.90
2018-02-19T16:04:31.710Z,4.70
2018-02-19T16:06:59.622Z,4.70
2018-02-19T16:09:27.512Z,4.60
2018-02-19T16:11:55.117Z,4.60
2018-02-19T16:14:23.000Z,4.40
2018-02-19T16:16:50.505Z,4.40
2018-02-19T16:19:18.454Z,4.30
2018-02-19T16:21:45.947Z,4.30
2018-02-19T16:24:13.437Z,4.30
2018-02-19T16:26:40.935Z,4.40
2018-02-19T16:29:08.514Z,4.40
2018-02-19T16:31:36.011Z,4.40
2018-02-19T16:34:03.490Z,4.40
2018-02-19T16:36:31.083Z,4.40
2018-02-19T16:38:58.569Z,4.40
2018-02-19T16:41:26.086Z,4.40
2018-02-19T16:43:53.978Z,4.30
2018-02-19T16:48:30.590Z,4.40
2018-02-19T16:50:58.100Z,4.30
2018-02-19T16:53:26.055Z,4.30
2018-02-19T16:55:53.545Z,4.30
2018-02-19T16:58:21.141Z,4.40
2018-02-19T17:00:49.283Z,4.30
2018-02-19T17:06:14.283Z,4.30
2018-02-19T17:08:41.779Z,4.20
2018-02-19T17:11:09.263Z,4.10
2018-02-19T17:13:36.759Z,4.10
2018-02-19T17:16:04.239Z,4.10
2018-02-19T17:18:31.732Z,4.10
2018-02-19T17:20:59.207Z,4.10
2018-02-19T17:23:26.708Z,4.00
2018-02-19T17:25:54.188Z,4.00
2018-02-19T17:28:21.679Z,4.00
2018-02-19T17:30:49.159Z,4.00
2018-02-19T17:33:16.651Z,3.90
2018-02-19T17:35:59.903Z,3.80
2018-02-19T17:38:27.425Z,3.80
2018-02-19T17:40:54.896Z,3.70
2018-02-19T17:43:22.399Z,3.70
2018-02-19T17:45:49.888Z,3.70
2018-02-19T17:48:17.383Z,3.70
2018-02-19T17:50:44.863Z,3.70
2018-02-19T17:53:12.355Z,3.60
2018-02-19T17:55:39.836Z,3.60
2018-02-19T17:58:07.326Z,3.50
2018-02-19T18:00:34.800Z,3.50
2018-02-19T18:03:02.297Z,3.60
2018-02-19T18:05:29.780Z,3.60
2018-02-19T18:07:57.271Z,3.50
2018-02-19T18:10:24.750Z,3.40
2018-02-19T18:12:52.250Z,3.40
2018-02-19T18:15:19.737Z,3.40
2018-02-19T18:17:47.248Z,3.40
2018-02-19T18:20:15.133Z,3.40
2018-02-19T18:22:42.637Z,3.40
2018-02-19T18:25:10.521Z,3.40
2018-02-19T18:27:38.405Z,3.30
2018-02-19T18:30:05.912Z,3.30
2018-02-19T18:32:33.793Z,3.20
2018-02-19T18:35:01.291Z,3.30
2018-02-19T18:37:28.775Z,3.20
2018-02-19T18:39:56.688Z,3.10
2018-02-19T18:42:24.564Z,3.00
2018-02-19T18:44:52.061Z,3.10
2018-02-19T18:47:19.943Z,3.10
2018-02-19T18:49:47.443Z,3.10
2018-02-19T18:52:15.328Z,3.10
2018-02-19T18:54:43.231Z,3.10
2018-02-19T18:57:10.720Z,3.20
2018-02-19T18:59:38.229Z,3.20
2018-02-19T19:02:05.708Z,3.10
2018-02-19T19:04:33.213Z,3.00
2018-02-19T19:07:00.697Z,3.00
2018-02-19T19:09:40.492Z,2.80
2018-02-19T19:12:07.975Z,2.80
2018-02-19T19:14:35.471Z,2.80
2018-02-19T19:17:02.948Z,2.90
2018-02-19T19:19:30.448Z,2.80
2018-02-19T19:21:57.931Z,2.80
2018-02-19T19:24:25.430Z,2.80
2018-02-19T19:26:52.996Z,2.80
2018-02-19T19:29:20.858Z,2.70
2018-02-19T19:31:48.731Z,2.70
2018-02-19T19:34:16.239Z,2.70
2018-02-19T19:36:43.721Z,2.70
2018-02-19T19:39:11.219Z,2.60
2018-02-19T19:41:38.704Z,2.60
2018-02-19T19:44:06.591Z,2.60
2018-02-19T19:46:34.554Z,2.60
2018-02-19T19:49:02.065Z,2.60
2018-02-19T19:51:29.578Z,2.60
2018-02-19T19:53:57.125Z,2.40
2018-02-19T19:56:24.602Z,2.40
2018-02-19T19:58:52.091Z,2.30
2018-02-19T20:01:19.627Z,2.40
2018-02-19T20:03:47.111Z,2.40
2018-02-19T20:06:14.620Z,2.40
2018-02-19T20:08:42.489Z,2.40
2018-02-19T20:11:10.023Z,2.40
2018-02-19T20:13:37.557Z,2.40
2018-02-19T20:16:05.052Z,2.40
2018-02-19T20:18:32.535Z,2.30
2018-02-19T20:21:00.040Z,2.30
2018-02-19T20:23:27.523Z,2.30
2018-02-19T20:25:55.291Z,2.30
2018-02-19T20:28:22.780Z,2.30
2018-02-19T20:30:50.441Z,2.20
2018-02-19T20:33:17.927Z,2.20
2018-02-19T20:35:45.679Z,2.20
2018-02-19T20:38:13.159Z,2.20
2018-02-19T20:40:40.775Z,2.30
2018-02-19T20:43:08.255Z,2.20
2018-02-19T20:45:35.776Z,2.20
2018-02-19T20:48:03.259Z,2.20
2018-02-19T20:50:30.837Z,2.20
2018-02-19T20:52:58.356Z,2.20
2018-02-19T20:55:25.852Z,2.10
2018-02-19T20:57:53.344Z,2.10
2018-02-19T21:00:20.844Z,2.10
2018-02-19T21:02:48.327Z,2.10
2018-02-19T21:05:15.812Z,2.10
2018-02-19T21:07:43.459Z,2.20
2018-02-19T21:10:10.939Z,2.20
2018-02-19T21:12:38.638Z,2.10
2018-02-19T21:15:06.130Z,2.10
2018-02-19T21:17:33.687Z,2.10
2018-02-19T21:20:01.190Z,2.10
2018-02-19T21:22:28.817Z,2.10
2018-02-19T21:24:56.298Z,2.10
2018-02-19T21:27:23.999Z,2.00
2018-02-19T21:29:51.492Z,2.00
2018-02-19T21:32:19.011Z,2.00
2018-02-19T21:34:46.521Z,1.90
2018-02-19T21:37:14.068Z,1.80
2018-02-19T21:39:41.547Z,1.70
2018-02-19T21:42:09.044Z,1.70
2018-02-19T21:44:36.568Z,1.60
2018-02-19T21:47:04.083Z,1.50
2018-02-19T21:49:31.955Z,1.60
2018-02-19T21:51:59.451Z,1.50
2018-02-19T21:54:26.934Z,1.50
2018-02-19T21:56:54.427Z,1.50
2018-02-19T21:59:21.991Z,1.50
2018-02-19T22:01:49.488Z,1.40
2018-02-19T22:04:16.966Z,1.40
2018-02-19T22:06:44.467Z,1.30
2018-02-19T22:09:11.947Z,1.30
2018-02-19T22:11:39.451Z,1.30
2018-02-19T22:14:06.935Z,1.20
2018-02-19T22:16:34.431Z,1.20
2018-02-19T22:19:01.912Z,1.20
2018-02-19T22:21:29.407Z,1.10
2018-02-19T22:23:56.900Z,1.10
2018-02-19T22:26:24.399Z,1.10
2018-02-19T22:28:51.888Z,1.00
2018-02-19T22:31:19.403Z,1.10
2018-02-19T22:33:46.892Z,1.00
2018-02-19T22:36:14.376Z,1.10
2018-02-19T22:38:41.896Z,1.10
2018-02-19T22:41:09.380Z,1.10
2018-02-19T22:43:36.880Z,1.10
2018-02-19T22:46:04.362Z,1.10
2018-02-19T22:48:31.859Z,1.10
2018-02-19T22:50:59.439Z,1.00
2018-02-19T22:53:26.941Z,1.00
2018-02-19T22:55:54.425Z,1.00
2018-02-19T22:58:21.926Z,0.90
2018-02-19T23:00:49.412Z,1.00
2018-02-19T23:03:16.915Z,1.00
2018-02-19T23:05:44.788Z,1.00
2018-02-19T23:08:12.298Z,1.00
2018-02-19T23:10:39.794Z,1.00
2018-02-19T23:13:07.304Z,1.00
2018-02-19T23:15:34.800Z,1.00
2018-02-19T23:18:02.313Z,1.00
2018-02-19T23:20:30.205Z,0.90
2018-02-19T23:22:57.718Z,0.90
2018-02-19T23:25:25.211Z,0.80
2018-02-19T23:27:52.721Z,0.80
2018-02-19T23:30:20.217Z,0.70
2018-02-19T23:32:47.730Z,0.60
2018-02-19T23:35:15.628Z,0.60
2018-02-19T23:37:43.143Z,0.60
2018-02-19T23:40:10.643Z,0.60
2018-02-19T23:42:38.157Z,0.50
2018-02-19T23:45:05.654Z,0.50
2018-02-19T23:47:33.168Z,0.50
2018-02-19T23:50:01.058Z,0.40
2018-02-19T23:52:28.969Z,0.40
2018-02-19T23:54:56.862Z,0.40
2018-02-19T23:57:24.749Z,0.40
2018-02-19T23:59:52.654Z,0.40
